Time;durP1;ratioP1;P1;durP2;ratioP2;P2;SDS_P1;SDS_P2;PMS_P1;PMS_P2;Temp;Humidity;BMP_temperature;BMP_pressure;BME280_temperature;BME280_humidity;BME280_pressure;Samples;Min_cycle;Max_cycle;Signal;HPM_P1;HPM_P2
2023/05/20 00:02:19;;;;;;;;;;;;;;;21.71;30.10;97996.47;5044759;28;1138;-75
2023/05/20 00:04:44;;;;;;;;;;;;;;;21.47;30.25;97998.75;5040184;28;1260;-74
2023/05/20 00:07:10;;;;;;;;;;;;;;;21.45;30.30;97995.56;5040223;28;1124;-75
2023/05/20 00:09:37;;;;;;;;;;;;;;;21.30;30.54;98000.81;5056678;28;1914;-74
2023/05/20 00:12:02;;;;;;;;;;;;;;;21.50;30.40;97992.19;5040382;28;1004;-75
2023/05/20 00:14:28;;;;;;;;;;;;;;;22.10;29.53;98007.56;5023232;28;1270;-74
2023/05/20 00:16:53;;;;;;;;;;;;;;;22.36;29.29;98007.63;5023532;28;1681;-75
2023/05/20 00:19:19;;;;;;;;;;;;;;;21.92;30.02;97978.13;5039935;28;1008;-74
2023/05/20 00:21:44;;;;;;;;;;;;;;;21.48;30.41;97989.81;5039880;28;954;-74
2023/05/20 00:24:11;;;;;;;;;;;;;;;21.55;30.24;97983.16;5056347;28;1185;-75
2023/05/20 00:26:37;;;;;;;;;;;;;;;21.36;30.24;97976.41;5039531;28;960;-75
2023/05/20 00:29:02;;;;;;;;;;;;;;;21.47;30.27;97981.78;5022937;28;1985;-75
2023/05/20 00:31:28;;;;;;;;;;;;;;;21.35;30.58;97979.66;5022803;28;1393;-75
2023/05/20 00:33:53;;;;;;;;;;;;;;;21.31;30.58;97974.88;5039775;28;997;-74
2023/05/20 00:36:19;;;;;;;;;;;;;;;21.42;30.23;97974.63;5066417;28;1194;-74
2023/05/20 00:38:45;;;;;;;;;;;;;;;21.46;30.21;97974.53;5077401;28;1036;-74
2023/05/20 00:41:10;;;;;;;;;;;;;;;21.35;30.44;97971.16;5077245;28;927;-74
2023/05/20 00:43:36;;;;;;;;;;;;;;;21.75;30.43;97963.19;5076119;28;1112;-75
2023/05/20 00:46:01;;;;;;;;;;;;;;;22.16;29.57;97973.00;5077034;28;1652;-74
2023/05/20 00:48:28;;;;;;;;;;;;;;;22.29;29.61;97971.78;5059091;28;1914;-74
2023/05/20 00:50:54;;;;;;;;;;;;;;;21.98;29.98;97970.66;5076835;28;974;-75
2023/05/20 00:53:20;;;;;;;;;;;;;;;21.73;30.22;97966.50;5060049;28;1117;-75
2023/05/20 00:55:45;;;;;;;;;;;;;;;21.40;31.00;97964.97;5076691;28;920;-75
2023/05/20 00:58:11;;;;;;;;;;;;;;;21.55;30.72;97966.16;5076850;28;986;-75
2023/05/20 01:00:37;;;;;;;;;;;;;;;21.62;30.65;97971.66;5077158;28;888;-75
2023/05/20 01:03:03;;;;;;;;;;;;;;;21.38;30.80;97967.44;5076921;28;1141;-74
2023/05/20 01:05:28;;;;;;;;;;;;;;;21.55;30.50;97971.84;5076780;28;1200;-75
2023/05/20 01:07:54;;;;;;;;;;;;;;;21.50;30.70;97970.38;5059930;28;1906;-75
2023/05/20 01:10:20;;;;;;;;;;;;;;;21.23;31.03;97967.00;5059794;28;1361;-74
2023/05/20 01:12:47;;;;;;;;;;;;;;;21.34;31.15;97967.53;5076726;28;898;-75
2023/05/20 01:15:13;;;;;;;;;;;;;;;21.41;30.97;97958.09;5042890;28;1121;-75
2023/05/20 01:17:40;;;;;;;;;;;;;;;21.34;30.92;97967.53;5059735;28;1209;-75
2023/05/20 01:20:08;;;;;;;;;;;;;;;21.90;30.56;97961.56;5060212;28;1030;-75
2023/05/20 01:22:35;;;;;;;;;;;;;;;21.99;30.60;97955.25;5058438;28;1090;-74
2023/05/20 01:25:01;;;;;;;;;;;;;;;22.36;29.86;97957.41;5074893;28;993;-75
2023/05/20 01:27:29;;;;;;;;;;;;;;;21.90;30.61;97947.41;5041984;28;1910;-75
2023/05/20 01:29:54;;;;;;;;;;;;;;;21.62;30.97;97959.53;5041887;28;1115;-76
2023/05/20 01:32:21;;;;;;;;;;;;;;;21.82;30.60;97944.00;5025152;28;1151;-75
2023/05/20 01:34:50;;;;;;;;;;;;;;;21.61;30.56;97957.97;5025246;28;1084;-75
2023/05/20 01:37:16;;;;;;;;;;;;;;;21.50;31.01;97949.72;5041529;28;1017;-75
2023/05/20 01:39:41;;;;;;;;;;;;;;;21.63;30.60;97953.41;5041440;28;1124;-76
2023/05/20 01:42:07;;;;;;;;;;;;;;;21.39;31.20;97957.72;5041326;28;1130;-75
2023/05/20 01:44:33;;;;;;;;;;;;;;;21.45;31.03;97955.94;5041416;28;1207;-74
2023/05/20 01:46:58;;;;;;;;;;;;;;;21.39;31.31;97964.16;5057881;28;1027;-75
2023/05/20 01:49:24;;;;;;;;;;;;;;;21.43;31.22;97964.09;4998258;28;1903;-74
2023/05/20 01:51:49;;;;;;;;;;;;;;;21.59;31.07;97964.84;4998450;28;1160;-75
2023/05/20 01:54:15;;;;;;;;;;;;;;;22.19;30.81;97967.25;5013771;28;953;-75
2023/05/20 01:56:40;;;;;;;;;;;;;;;22.19;30.72;97960.78;5034491;28;1062;-75
2023/05/20 01:59:06;;;;;;;;;;;;;;;22.02;30.87;97968.50;5001580;28;1208;-75
2023/05/20 02:01:32;;;;;;;;;;;;;;;21.56;31.47;97968.56;4998441;28;1119;-74
2023/05/20 02:03:57;;;;;;;;;;;;;;;21.43;31.62;97975.41;4998099;28;1065;-75
2023/05/20 02:06:22;;;;;;;;;;;;;;;21.52;31.07;97972.75;4997516;28;1205;-74
2023/05/20 02:08:48;;;;;;;;;;;;;;;21.28;31.68;97974.94;4997293;28;1906;-75
2023/05/20 02:11:13;;;;;;;;;;;;;;;21.35;31.56;97971.16;4998130;28;1129;-75
2023/05/20 02:13:39;;;;;;;;;;;;;;;21.27;31.70;97974.16;4998069;28;1290;-75
2023/05/20 02:16:05;;;;;;;;;;;;;;;21.57;31.03;97972.19;4997788;28;1356;-75
2023/05/20 02:18:31;;;;;;;;;;;;;;;21.35;31.35;97979.66;4998241;28;942;-75
2023/05/20 02:21:03;;;;;;;;;;;;;;;21.46;31.22;97974.53;5029908;28;1325;-75
2023/05/20 02:23:29;;;;;;;;;;;;;;;21.26;31.84;97971.78;5040511;28;973;-75
2023/05/20 02:25:57;;;;;;;;;;;;;;;21.30;31.67;97972.50;5057537;28;1067;-75
2023/05/20 02:28:22;;;;;;;;;;;;;;;22.23;30.80;97987.78;5057159;28;1902;-74
2023/05/20 02:30:50;;;;;;;;;;;;;;;22.05;31.03;97976.91;5073856;28;989;-75
2023/05/20 02:33:16;;;;;;;;;;;;;;;22.50;30.25;97983.75;5073808;28;1070;-74
2023/05/20 02:35:42;;;;;;;;;;;;;;;21.84;31.15;97978.31;5040465;28;1205;-74
2023/05/20 02:38:07;;;;;;;;;;;;;;;21.51;31.52;97983.28;5070926;28;1105;-74
2023/05/20 02:40:35;;;;;;;;;;;;;;;21.61;31.23;97980.59;5058289;28;1220;-75
2023/05/20 02:43:00;;;;;;;;;;;;;;;21.46;31.61;97978.16;5074572;28;933;-74
2023/05/20 02:45:26;;;;;;;;;;;;;;;21.44;31.44;97989.09;5073863;28;1207;-75
2023/05/20 02:47:52;;;;;;;;;;;;;;;21.51;31.53;97996.63;5073185;28;1985;-75
2023/05/20 02:50:17;;;;;;;;;;;;;;;21.54;31.33;97987.22;5040141;28;1058;-74
2023/05/20 02:52:44;;;;;;;;;;;;;;;21.28;31.98;97991.91;5056805;28;1325;-76
2023/05/20 02:55:10;;;;;;;;;;;;;;;21.29;31.82;97991.47;5056706;28;1375;-74
2023/05/20 02:57:39;;;;;;;;;;;;;;;21.52;31.38;98001.06;5040050;28;1261;-75
2023/05/20 03:00:09;;;;;;;;;;;;;;;21.37;31.69;97999.81;5040588;28;1424;-74
2023/05/20 03:02:35;;;;;;;;;;;;;;;21.74;30.81;98004.09;5073109;28;1166;-75
2023/05/20 03:05:01;;;;;;;;;;;;;;;21.43;31.24;97998.03;5056737;28;1129;-74
2023/05/20 03:07:27;;;;;;;;;;;;;;;21.32;31.74;98003.97;5056726;28;1276;-74
2023/05/20 03:09:52;;;;;;;;;;;;;;;21.38;31.53;98002.22;5039781;28;1967;-74
2023/05/20 03:12:18;;;;;;;;;;;;;;;21.15;31.89;98006.00;5056458;28;977;-74
2023/05/20 03:14:43;;;;;;;;;;;;;;;21.31;31.75;98002.41;5023295;28;1201;-74
2023/05/20 03:17:09;;;;;;;;;;;;;;;22.13;31.21;98011.56;5056560;28;1134;-74
2023/05/20 03:19:34;;;;;;;;;;;;;;;22.44;30.73;98011.84;5057283;28;1266;-74
2023/05/20 03:22:03;;;;;;;;;;;;;;;22.22;31.40;98008.84;5057763;28;1256;-75
2023/05/20 03:24:28;;;;;;;;;;;;;;;21.69;32.03;98002.59;5057491;28;1141;-74
2023/05/20 03:26:54;;;;;;;;;;;;;;;21.17;32.66;98003.50;5057743;28;1695;-74
2023/05/20 03:29:21;;;;;;;;;;;;;;;21.55;32.01;97997.31;5074315;28;1964;-74
2023/05/20 03:31:47;;;;;;;;;;;;;;;21.58;31.42;97993.59;5057806;28;1179;-74
2023/05/20 03:34:12;;;;;;;;;;;;;;;21.65;31.55;97999.06;5057793;28;1157;-75
2023/05/20 03:36:38;;;;;;;;;;;;;;;21.48;31.69;98000.34;5074062;28;1275;-75
2023/05/20 03:39:04;;;;;;;;;;;;;;;21.63;31.82;98001.56;5074125;28;1121;-74
2023/05/20 03:41:31;;;;;;;;;;;;;;;21.66;31.68;98000.69;5057948;28;1242;-75
2023/05/20 03:43:56;;;;;;;;;;;;;;;21.42;31.93;98007.78;5040780;28;1194;-74
2023/05/20 03:46:22;;;;;;;;;;;;;;;21.38;31.99;98004.25;5074696;28;913;-74
2023/05/20 03:48:47;;;;;;;;;;;;;;;21.36;32.03;98009.56;5057355;28;1976;-74
2023/05/20 03:51:13;;;;;;;;;;;;;;;21.35;32.04;98008.78;5074172;28;1034;-75
2023/05/20 03:53:39;;;;;;;;;;;;;;;21.33;32.09;98000.69;5073804;28;1295;-75
2023/05/20 03:56:05;;;;;;;;;;;;;;;21.41;31.77;98007.00;5074039;28;1240;-75
2023/05/20 03:58:30;;;;;;;;;;;;;;;21.32;31.94;98007.59;5057110;28;1281;-74
2023/05/20 04:00:57;;;;;;;;;;;;;;;22.00;31.83;98007.84;5089403;28;1370;-75
2023/05/20 04:03:23;;;;;;;;;;;;;;;22.08;32.31;98004.34;5039399;28;1238;-75
2023/05/20 04:05:48;;;;;;;;;;;;;;;22.40;31.84;98010.38;5055946;28;1694;-74
2023/05/20 04:08:20;;;;;;;;;;;;;;;22.02;32.20;98009.00;5023652;28;1906;-75
2023/05/20 04:10:46;;;;;;;;;;;;;;;21.56;32.83;98013.09;5039610;28;2144;-75
2023/05/20 04:13:12;;;;;;;;;;;;;;;21.57;32.23;98009.81;5055976;28;973;-75
2023/05/20 04:15:40;;;;;;;;;;;;;;;21.70;32.04;98012.69;5016219;28;1299;-75
2023/05/20 04:18:06;;;;;;;;;;;;;;;21.85;31.74;98008.22;5049093;28;1063;-74
2023/05/20 04:20:31;;;;;;;;;;;;;;;21.77;31.84;98012.50;4999775;28;1123;-75
2023/05/20 04:22:57;;;;;;;;;;;;;;;21.46;32.31;98002.84;5016265;28;1086;-74
2023/05/20 04:25:23;;;;;;;;;;;;;;;21.50;32.34;97997.84;4999986;28;1107;-75
2023/05/20 04:27:49;;;;;;;;;;;;;;;21.62;32.21;98016.97;5016330;28;1991;-75
2023/05/20 04:30:20;;;;;;;;;;;;;;;21.41;32.58;97998.50;5016801;28;1154;-76
2023/05/20 04:32:47;;;;;;;;;;;;;;;21.54;32.16;98001.38;5052935;28;992;-75
2023/05/20 04:35:13;;;;;;;;;;;;;;;21.41;32.53;98001.34;5019629;28;1012;-75
2023/05/20 04:37:43;;;;;;;;;;;;;;;21.53;32.08;97997.75;5003714;28;1148;-75
2023/05/20 04:40:11;;;;;;;;;;;;;;;21.43;32.13;97996.00;5019550;28;1184;-76
2023/05/20 04:42:37;;;;;;;;;;;;;;;21.79;32.35;97990.19;5003269;28;1266;-75
2023/05/20 04:45:04;;;;;;;;;;;;;;;22.12;32.65;97997.81;5019499;28;1217;-74
2023/05/20 04:47:37;;;;;;;;;;;;;;;22.29;32.59;97996.50;5019374;28;1164;-74
2023/05/20 04:50:09;;;;;;;;;;;;;;;21.81;33.23;97993.38;5003084;28;1324;-75
2023/05/20 04:52:35;;;;;;;;;;;;;;;22.01;32.70;97993.22;5034744;28;1107;-75
2023/05/20 04:55:00;;;;;;;;;;;;;;;22.03;32.29;97989.94;5060485;28;1092;-75
2023/05/20 04:57:26;;;;;;;;;;;;;;;21.72;32.62;97998.88;5076880;28;1202;-75
2023/05/20 04:59:52;;;;;;;;;;;;;;;21.47;33.30;97993.09;5060120;28;1133;-75
2023/05/20 05:02:17;;;;;;;;;;;;;;;21.67;32.95;97993.78;5076580;28;1072;-75
2023/05/20 05:04:43;;;;;;;;;;;;;;;21.83;32.38;97971.06;5078071;28;940;-76
2023/05/20 05:07:08;;;;;;;;;;;;;;;21.58;32.76;97977.41;5043452;28;1363;-75
2023/05/20 05:09:34;;;;;;;;;;;;;;;21.89;32.34;97965.66;5059949;28;1918;-75
2023/05/20 05:12:01;;;;;;;;;;;;;;;21.70;32.73;97966.59;5059945;28;1160;-75
2023/05/20 05:14:27;;;;;;;;;;;;;;;21.50;33.26;97976.03;5043707;28;1182;-75
2023/05/20 05:16:52;;;;;;;;;;;;;;;21.55;33.23;97971.84;5043441;28;1177;-74
2023/05/20 05:19:18;;;;;;;;;;;;;;;21.76;32.59;97976.94;5076461;28;1117;-75
2023/05/20 05:21:44;;;;;;;;;;;;;;;21.68;32.91;97977.56;5076472;28;1144;-74
2023/05/20 05:24:10;;;;;;;;;;;;;;;21.76;32.92;97976.94;5043027;28;1566;-75
2023/05/20 05:26:35;;;;;;;;;;;;;;;21.69;32.95;97977.13;5059792;28;1221;-76
2023/05/20 05:29:02;;;;;;;;;;;;;;;21.59;33.05;97967.66;5059523;28;1970;-75
2023/05/20 05:31:27;;;;;;;;;;;;;;;21.78;32.97;97968.78;5059589;28;1420;-75
2023/05/20 05:33:53;;;;;;;;;;;;;;;21.98;32.50;97970.66;5076440;28;907;-75
2023/05/20 05:36:18;;;;;;;;;;;;;;;21.58;33.49;97954.75;5076113;28;1182;-75
2023/05/20 05:38:44;;;;;;;;;;;;;;;21.53;33.36;97951.69;5076253;28;1223;-74
2023/05/20 05:41:10;;;;;;;;;;;;;;;21.51;33.45;97957.00;5042648;28;1118;-75
2023/05/20 05:43:36;;;;;;;;;;;;;;;21.84;32.84;97955.66;5075786;28;923;-74
2023/05/20 05:46:02;;;;;;;;;;;;;;;21.69;33.26;97960.13;5037891;28;1289;-76
2023/05/20 05:48:27;;;;;;;;;;;;;;;21.72;33.15;97959.25;5054609;28;1906;-75
2023/05/20 05:50:53;;;;;;;;;;;;;;;21.80;33.00;97966.28;5054582;28;1132;-75
2023/05/20 05:53:20;;;;;;;;;;;;;;;21.80;32.92;97960.63;5038014;28;1129;-75
2023/05/20 05:55:47;;;;;;;;;;;;;;;22.07;32.24;97968.78;5037774;28;1303;-75
2023/05/20 05:58:12;;;;;;;;;;;;;;;21.69;32.98;97965.78;5054372;28;1126;-75
2023/05/20 06:00:38;;;;;;;;;;;;;;;21.69;32.90;97977.13;5074169;28;1131;-75
2023/05/20 06:03:03;;;;;;;;;;;;;;;21.62;32.97;97968.81;5057513;28;1108;-75
2023/05/20 06:05:33;;;;;;;;;;;;;;;21.54;33.55;97967.41;5057652;28;1256;-75
2023/05/20 06:07:58;;;;;;;;;;;;;;;21.78;32.81;97968.78;5074108;28;1906;-75
2023/05/20 06:10:24;;;;;;;;;;;;;;;21.83;32.57;97979.56;5057467;28;1170;-74
2023/05/20 06:12:50;;;;;;;;;;;;;;;21.84;32.74;97971.84;5073899;28;997;-74
2023/05/20 06:15:16;;;;;;;;;;;;;;;21.79;32.48;97973.19;5057332;28;1107;-75
2023/05/20 06:17:42;;;;;;;;;;;;;;;21.72;32.65;97967.75;5089010;28;1257;-75
2023/05/20 06:20:08;;;;;;;;;;;;;;;21.72;32.48;97959.25;5097664;28;1258;-75
2023/05/20 06:22:34;;;;;;;;;;;;;;;21.73;32.27;97966.50;5097512;28;936;-74
2023/05/20 06:25:01;;;;;;;;;;;;;;;22.18;32.83;97960.00;5063937;28;1131;-75
2023/05/20 06:27:28;;;;;;;;;;;;;;;22.53;33.27;97954.47;5097781;28;1205;-74
2023/05/20 06:29:53;;;;;;;;;;;;;;;22.63;33.79;97953.34;5080376;28;1906;-75
2023/05/20 06:32:19;;;;;;;;;;;;;;;22.90;33.68;97950.09;5078187;28;1145;-75
2023/05/20 06:34:44;;;;;;;;;;;;;;;22.32;34.33;97953.06;5040467;28;1208;-75
2023/05/20 06:37:10;;;;;;;;;;;;;;;22.19;33.99;97955.09;5057195;28;1209;-75
2023/05/20 06:39:36;;;;;;;;;;;;;;;22.05;33.90;97942.13;5057192;28;1214;-75
2023/05/20 06:42:02;;;;;;;;;;;;;;;22.13;33.40;97962.59;5057023;28;993;-75
2023/05/20 06:44:29;;;;;;;;;;;;;;;21.90;33.79;97961.56;5040266;28;1354;-75
2023/05/20 06:47:00;;;;;;;;;;;;;;;21.87;33.70;97961.69;5041031;28;1507;-75
2023/05/20 06:49:25;;;;;;;;;;;;;;;21.65;34.11;97959.41;5056586;28;1875;-75
2023/05/20 06:51:51;;;;;;;;;;;;;;;21.67;34.06;97968.28;5073409;28;1206;-74
2023/05/20 06:54:17;;;;;;;;;;;;;;;21.95;33.42;97960.22;5056433;28;1082;-75
2023/05/20 06:56:44;;;;;;;;;;;;;;;21.81;33.33;97962.22;5072790;28;1678;-76
2023/05/20 06:59:10;;;;;;;;;;;;;;;21.78;33.33;97979.31;5061399;28;1734;-75
2023/05/20 07:01:37;;;;;;;;;;;;;;;21.72;33.47;97978.28;5073051;28;1606;-75
2023/05/20 07:04:03;;;;;;;;;;;;;;;22.06;32.79;97974.88;5093587;28;1659;-75
2023/05/20 07:06:30;;;;;;;;;;;;;;;21.96;33.05;97973.94;5091286;28;1283;-74
2023/05/20 07:08:56;;;;;;;;;;;;;;;21.96;32.83;97979.59;5091179;28;1894;-75
2023/05/20 07:11:23;;;;;;;;;;;;;;;21.96;32.85;97981.63;5074361;28;1113;-75
2023/05/20 07:13:48;;;;;;;;;;;;;;;21.95;32.78;97977.22;5091600;28;1285;-75
2023/05/20 07:16:14;;;;;;;;;;;;;;;21.94;32.57;97986.97;5091331;28;1221;-75
2023/05/20 07:18:44;;;;;;;;;;;;;;;21.99;32.51;97977.91;5074360;28;1192;-75
2023/05/20 07:21:09;;;;;;;;;;;;;;;21.98;32.38;97990.50;5075430;28;939;-75
2023/05/20 07:23:54;;;;;;;;;;;;;;;21.74;33.08;97995.59;5075387;28;906;-75
2023/05/20 07:26:20;;;;;;;;;;;;;;;21.64;33.24;98005.97;5091282;28;1401;-76
2023/05/20 07:28:46;;;;;;;;;;;;;;;21.68;32.78;98008.72;5090901;28;1909;-75
2023/05/20 07:31:11;;;;;;;;;;;;;;;21.94;32.53;98018.13;5074388;28;1283;-76
2023/05/20 07:33:41;;;;;;;;;;;;;;;21.82;32.72;98025.34;5074217;28;1321;-76
2023/05/20 07:36:07;;;;;;;;;;;;;;;21.62;32.91;98022.63;5074548;28;1185;-75
2023/05/20 07:38:33;;;;;;;;;;;;;;;21.58;32.68;98027.56;5074092;28;1331;-76
2023/05/20 07:41:02;;;;;;;;;;;;;;;21.95;32.42;98031.03;5074057;28;1255;-75
2023/05/20 07:43:28;;;;;;;;;;;;;;;22.03;32.19;98030.41;5113321;28;1128;-75
2023/05/20 07:45:53;;;;;;;;;;;;;;;21.80;32.64;98020.09;5096606;28;1118;-75
2023/05/20 07:48:19;;;;;;;;;;;;;;;21.91;32.51;98028.31;5096347;28;1906;-75
2023/05/20 07:50:45;;;;;;;;;;;;;;;21.93;32.30;98031.50;5096522;28;993;-75
2023/05/20 07:53:11;;;;;;;;;;;;;;;21.95;32.52;98028.22;5096372;28;1191;-75
2023/05/20 07:55:38;;;;;;;;;;;;;;;21.71;32.87;98025.63;5096653;28;1028;-75
2023/05/20 07:58:05;;;;;;;;;;;;;;;21.81;32.65;98033.03;5079706;28;1264;-76
2023/05/20 08:00:32;;;;;;;;;;;;;;;21.91;32.27;98027.50;5079883;28;1114;-75
2023/05/20 08:03:02;;;;;;;;;;;;;;;21.90;32.58;98023.09;5080219;28;1105;-75
2023/05/20 08:05:37;;;;;;;;;;;;;;;21.74;32.55;98023.94;5099148;28;1401;-75
2023/05/20 08:08:02;;;;;;;;;;;;;;;21.89;32.36;98024.34;5083298;28;1963;-75
2023/05/20 08:10:36;;;;;;;;;;;;;;;21.87;32.26;98032.50;5084566;28;1151;-76
2023/05/20 08:13:02;;;;;;;;;;;;;;;21.93;32.20;98033.53;5117336;28;1010;-75
2023/05/20 08:15:28;;;;;;;;;;;;;;;21.55;33.04;98034.13;5078612;28;1209;-76
2023/05/20 08:17:55;;;;;;;;;;;;;;;21.59;32.81;98040.50;5077603;28;1281;-73
2023/05/20 08:20:21;;;;;;;;;;;;;;;21.77;32.50;98040.84;5094235;28;1176;-75
2023/05/20 08:22:48;;;;;;;;;;;;;;;21.71;32.45;98041.78;5077538;28;1120;-75
2023/05/20 08:25:14;;;;;;;;;;;;;;;21.76;32.52;98049.75;5094204;28;863;-74
2023/05/20 08:27:40;;;;;;;;;;;;;;;21.95;32.05;98054.50;5077237;28;1362;-74
2023/05/20 08:30:08;;;;;;;;;;;;;;;21.85;32.32;98047.88;5096522;28;1913;-74
2023/05/20 08:32:35;;;;;;;;;;;;;;;21.62;32.66;98056.59;5096464;28;1164;-73
2023/05/20 08:35:01;;;;;;;;;;;;;;;21.47;32.70;98052.53;5096262;28;1145;-74
2023/05/20 08:37:27;;;;;;;;;;;;;;;22.00;32.70;98048.28;5079834;28;1138;-74
2023/05/20 08:39:53;;;;;;;;;;;;;;;22.58;33.11;98056.00;5092841;28;1279;-75
2023/05/20 08:42:25;;;;;;;;;;;;;;;22.59;33.76;98044.22;5075881;28;1300;-74
2023/05/20 08:44:52;;;;;;;;;;;;;;;22.62;34.20;98048.97;5075244;28;1423;-74
2023/05/20 08:47:20;;;;;;;;;;;;;;;22.44;34.77;98043.03;5075426;28;1599;-74
2023/05/20 08:49:46;;;;;;;;;;;;;;;22.05;34.61;98029.94;5075270;28;1918;-74
2023/05/20 08:52:12;;;;;;;;;;;;;;;21.92;34.72;98034.78;5058479;28;1638;-75
2023/05/20 08:54:42;;;;;;;;;;;;;;;21.70;34.77;98041.00;5074777;28;1901;-74
2023/05/20 08:57:08;;;;;;;;;;;;;;;21.76;34.44;98038.44;5035509;28;2009;-74
2023/05/20 08:59:33;;;;;;;;;;;;;;;21.79;34.29;98032.66;5015421;28;1595;-74
2023/05/20 09:01:59;;;;;;;;;;;;;;;21.83;34.01;98044.72;5029569;28;1642;-74
2023/05/20 09:04:24;;;;;;;;;;;;;;;21.93;33.68;98047.69;5018881;28;1036;-75
2023/05/20 09:06:50;;;;;;;;;;;;;;;22.03;33.36;98052.28;5031369;28;1046;-74
2023/05/20 09:09:16;;;;;;;;;;;;;;;21.68;33.84;98049.16;4999447;28;1906;-74
2023/05/20 09:11:41;;;;;;;;;;;;;;;21.87;33.70;98038.16;4999429;28;1214;-74
2023/05/20 09:14:07;;;;;;;;;;;;;;;21.88;33.41;98040.53;5018916;28;1211;-74
2023/05/20 09:16:32;;;;;;;;;;;;;;;21.79;33.46;98027.00;5001932;28;1159;-74
2023/05/20 09:18:58;;;;;;;;;;;;;;;21.81;33.56;98018.88;5018982;28;964;-73
2023/05/20 09:21:25;;;;;;;;;;;;;;;21.71;33.67;98025.63;5035329;28;948;-73
2023/05/20 09:23:52;;;;;;;;;;;;;;;21.68;33.69;98026.50;5035150;28;1337;-73
2023/05/20 09:26:18;;;;;;;;;;;;;;;21.93;33.31;98025.84;5002596;28;1070;-74
2023/05/20 09:28:44;;;;;;;;;;;;;;;21.87;33.24;98024.00;5061175;28;1902;-73
2023/05/20 09:31:09;;;;;;;;;;;;;;;21.69;33.70;98019.59;5077715;28;875;-73
2023/05/20 09:33:35;;;;;;;;;;;;;;;21.88;33.64;98012.22;5077082;28;940;-74
2023/05/20 09:36:04;;;;;;;;;;;;;;;21.91;33.40;98016.97;5059514;28;900;-73
2023/05/20 09:38:34;;;;;;;;;;;;;;;21.78;33.58;98014.09;5059184;28;951;-74
2023/05/20 09:41:02;;;;;;;;;;;;;;;21.96;33.25;98016.41;5059805;28;898;-74
2023/05/20 09:43:27;;;;;;;;;;;;;;;21.79;33.38;98004.34;5075921;28;1003;-73
2023/05/20 09:45:54;;;;;;;;;;;;;;;21.83;33.49;98005.06;5059333;28;1164;-74
2023/05/20 09:48:20;;;;;;;;;;;;;;;22.09;32.91;98005.16;5059297;28;1898;-73
2023/05/20 09:50:45;;;;;;;;;;;;;;;22.05;33.19;98010.91;5059093;28;942;-73
2023/05/20 09:53:11;;;;;;;;;;;;;;;21.79;33.60;98001.53;5059178;28;1216;-73
2023/05/20 09:55:37;;;;;;;;;;;;;;;21.65;33.43;97995.44;5059259;28;1620;-74
2023/05/20 09:58:02;;;;;;;;;;;;;;;21.66;33.79;97994.19;5075893;28;880;-74
2023/05/20 10:00:28;;;;;;;;;;;;;;;21.90;33.44;97986.25;5075709;28;897;-73
2023/05/20 10:02:53;;;;;;;;;;;;;;;21.99;33.10;97983.59;5075436;28;1022;-73
2023/05/20 10:05:20;;;;;;;;;;;;;;;21.84;33.42;97994.50;5074187;28;1135;-73
2023/05/20 10:08:04;;;;;;;;;;;;;;;21.97;33.12;97991.75;5057710;28;1902;-73
2023/05/20 10:10:29;;;;;;;;;;;;;;;21.97;33.22;97986.88;5057818;28;1460;-73
2023/05/20 10:13:02;;;;;;;;;;;;;;;22.00;33.23;97980.28;5057254;28;1700;-75
2023/05/20 10:15:38;;;;;;;;;;;;;;;22.04;32.92;97980.19;5039093;28;1846;-73
2023/05/20 10:18:10;;;;;;;;;;;;;;;22.11;32.60;97974.34;5054602;28;1538;-74
2023/05/20 10:20:46;;;;;;;;;;;;;;;21.99;33.12;97983.59;5057214;28;1544;-74
2023/05/20 10:23:19;;;;;;;;;;;;;;;22.10;32.69;97984.06;5040885;28;1146;-74
2023/05/20 10:25:49;;;;;;;;;;;;;;;21.99;32.91;97972.25;5040621;28;1116;-74
2023/05/20 10:28:15;;;;;;;;;;;;;;;21.79;33.34;97986.56;5056364;28;1963;-75
2023/05/20 10:30:48;;;;;;;;;;;;;;;21.99;32.84;97978.72;5074077;28;923;-74
2023/05/20 10:33:15;;;;;;;;;;;;;;;22.02;32.88;97979.84;5057177;28;951;-74
2023/05/20 10:35:45;;;;;;;;;;;;;;;21.98;32.83;97970.66;5059108;28;963;-74
2023/05/20 10:38:11;;;;;;;;;;;;;;;22.24;32.34;97988.56;5056833;28;1003;-75
2023/05/20 10:40:37;;;;;;;;;;;;;;;21.73;33.13;97972.16;5024156;28;1585;-74
2023/05/20 10:43:10;;;;;;;;;;;;;;;21.98;32.86;97970.66;5073851;28;928;-74
2023/05/20 10:45:36;;;;;;;;;;;;;;;21.96;32.60;97973.13;5040354;28;1402;-73
2023/05/20 10:48:01;;;;;;;;;;;;;;;21.85;32.89;97974.22;5037506;28;1909;-73
2023/05/20 10:50:36;;;;;;;;;;;;;;;21.93;32.70;97968.38;5057007;28;939;-75
2023/05/20 10:53:04;;;;;;;;;;;;;;;21.84;32.60;97966.97;5040323;28;1612;-74
2023/05/20 10:55:37;;;;;;;;;;;;;;;21.77;32.84;97958.69;5040171;28;945;-74
2023/05/20 10:58:03;;;;;;;;;;;;;;;21.91;32.91;97953.84;5056928;28;1109;-74
2023/05/20 11:00:28;;;;;;;;;;;;;;;21.91;32.88;97962.34;5073899;28;981;-74
2023/05/20 11:02:54;;;;;;;;;;;;;;;22.11;32.25;97954.50;5056714;28;1066;-74
2023/05/20 11:05:19;;;;;;;;;;;;;;;22.23;31.80;97959.44;5056697;28;1012;-74
2023/05/20 11:07:45;;;;;;;;;;;;;;;22.01;32.43;97941.41;5039815;28;1021;-74
2023/05/20 11:10:11;;;;;;;;;;;;;;;21.93;32.61;97934.38;5075445;28;1969;-73
2023/05/20 11:12:36;;;;;;;;;;;;;;;21.84;32.71;97944.31;5073338;28;961;-73
2023/05/20 11:15:02;;;;;;;;;;;;;;;21.97;32.59;97935.88;5056225;28;1174;-73
2023/05/20 11:17:27;;;;;;;;;;;;;;;21.89;32.47;97933.69;5039761;28;1108;-73
2023/05/20 11:19:53;;;;;;;;;;;;;;;21.77;32.74;97933.22;5056741;28;1028;-74
2023/05/20 11:22:18;;;;;;;;;;;;;;;21.89;32.28;97933.69;5056248;28;914;-73
2023/05/20 11:24:45;;;;;;;;;;;;;;;21.63;33.17;97927.16;5056526;28;1064;-74
2023/05/20 11:27:10;;;;;;;;;;;;;;;21.70;32.50;97927.72;5040002;28;1084;-73
2023/05/20 11:29:36;;;;;;;;;;;;;;;22.11;32.13;97917.66;5039743;28;1972;-73
2023/05/20 11:32:01;;;;;;;;;;;;;;;22.12;31.97;97913.59;5056721;28;972;-73
2023/05/20 11:34:33;;;;;;;;;;;;;;;21.81;32.54;97916.91;5056289;28;2274;-74
2023/05/20 11:36:58;;;;;;;;;;;;;;;22.00;32.10;97917.97;5039769;28;1466;-74
2023/05/20 11:39:26;;;;;;;;;;;;;;;22.03;31.88;97924.78;5057123;28;1008;-74
2023/05/20 11:41:51;;;;;;;;;;;;;;;21.77;32.33;97907.72;5060900;28;994;-73
2023/05/20 11:44:18;;;;;;;;;;;;;;;21.76;32.33;97914.63;5079032;28;1046;-74
2023/05/20 11:46:45;;;;;;;;;;;;;;;21.88;32.04;97915.13;5079510;28;935;-74
2023/05/20 11:49:11;;;;;;;;;;;;;;;21.91;31.96;97908.53;5077923;28;1905;-74
2023/05/20 11:51:38;;;;;;;;;;;;;;;21.88;32.07;97915.13;5078237;28;905;-73
2023/05/20 11:54:03;;;;;;;;;;;;;;;22.06;31.61;97921.03;5077941;28;987;-74
2023/05/20 11:56:32;;;;;;;;;;;;;;;22.03;31.71;97904.94;5044081;28;954;-73
2023/05/20 11:58:59;;;;;;;;;;;;;;;21.99;31.84;97915.59;5078087;28;1302;-74
2023/05/20 12:01:26;;;;;;;;;;;;;;;21.83;32.04;97908.75;5039988;28;1141;-74
2023/05/20 12:03:52;;;;;;;;;;;;;;;21.94;32.11;97890.66;5040361;28;1070;-74
2023/05/20 12:06:18;;;;;;;;;;;;;;;21.83;32.28;97894.59;5055931;28;1648;-75
2023/05/20 12:08:43;;;;;;;;;;;;;;;22.02;31.82;97897.66;5039758;28;1910;-75
2023/05/20 12:11:08;;;;;;;;;;;;;;;21.88;32.15;97886.78;5056381;28;1512;-76
2023/05/20 12:13:34;;;;;;;;;;;;;;;22.05;31.72;97900.41;5039838;28;977;-76
2023/05/20 12:15:59;;;;;;;;;;;;;;;21.93;32.02;97894.72;5056475;28;1032;-76
2023/05/20 12:18:25;;;;;;;;;;;;;;;21.99;31.87;97893.72;5039858;28;1049;-76
2023/05/20 12:20:50;;;;;;;;;;;;;;;21.74;32.12;97897.28;5056605;28;1029;-75
2023/05/20 12:23:16;;;;;;;;;;;;;;;22.02;31.86;97909.00;5040164;28;914;-76
2023/05/20 12:25:42;;;;;;;;;;;;;;;22.05;31.64;97902.44;5056704;28;879;-75
2023/05/20 12:28:07;;;;;;;;;;;;;;;22.19;31.41;97896.38;5039808;28;1906;-75
2023/05/20 12:30:33;;;;;;;;;;;;;;;22.12;31.62;97895.78;5023094;28;936;-74
2023/05/20 12:32:58;;;;;;;;;;;;;;;22.11;31.41;97883.66;5072915;28;1001;-74
2023/05/20 12:35:24;;;;;;;;;;;;;;;22.04;31.40;97890.31;5078581;28;1009;-75
2023/05/20 12:37:50;;;;;;;;;;;;;;;21.91;31.70;97878.16;5022919;28;1194;-74
2023/05/20 12:40:15;;;;;;;;;;;;;;;21.90;31.79;97872.97;5056175;28;1007;-74
2023/05/20 12:42:41;;;;;;;;;;;;;;;22.02;31.69;97886.34;5055938;28;1002;-74
2023/05/20 12:45:07;;;;;;;;;;;;;;;21.93;31.63;97884.19;5039327;28;1140;-73
2023/05/20 12:47:33;;;;;;;;;;;;;;;22.25;31.04;97883.25;5056174;28;1536;-75
2023/05/20 12:49:59;;;;;;;;;;;;;;;22.19;30.98;97879.38;5039137;28;1922;-75
2023/05/20 12:52:24;;;;;;;;;;;;;;;21.96;31.57;97883.28;5038289;28;1229;-74
2023/05/20 12:54:50;;;;;;;;;;;;;;;21.65;31.96;97880.13;5039209;28;1233;-74